createdAt,value
2023-03-05T00:00:36.903Z,26.41
2023-03-05T00:01:36.892Z,26.42
2023-03-05T00:02:36.891Z,26.44
2023-03-05T00:03:36.916Z,26.41
2023-03-05T00:55:26.049Z,26.48
2023-03-05T00:56:26.938Z,26.49
2023-03-05T00:57:26.887Z,26.46
2023-03-05T00:58:26.857Z,26.49
2023-03-05T00:59:26.801Z,26.46
2023-03-05T01:00:26.769Z,26.51
2023-03-05T01:01:26.778Z,26.48
2023-03-05T01:02:26.714Z,26.49
2023-03-05T01:03:26.638Z,26.49
2023-03-05T01:04:26.594Z,26.46
2023-03-05T01:05:26.635Z,26.49
2023-03-05T01:06:26.511Z,26.46
2023-03-05T01:07:26.461Z,26.46
2023-03-05T01:08:26.418Z,26.49
2023-03-05T01:09:26.379Z,26.46
2023-03-05T01:10:26.343Z,26.46
2023-03-05T01:11:26.357Z,26.48
2023-03-05T01:12:26.268Z,26.45
2023-03-05T01:13:26.217Z,26.46
2023-03-05T01:14:26.198Z,26.46
2023-03-05T01:15:26.983Z,26.45
2023-03-05T01:16:26.133Z,26.46
2023-03-05T01:17:26.042Z,26.44
2023-03-05T01:18:25.997Z,26.45
2023-03-05T01:19:25.965Z,26.45
2023-03-05T01:20:25.916Z,26.41
2023-03-05T01:21:25.900Z,26.42
2023-03-05T01:22:25.826Z,26.45
2023-03-05T01:23:25.785Z,26.45
2023-03-05T01:24:25.737Z,26.45
2023-03-05T01:25:25.729Z,26.44
2023-03-05T01:26:25.779Z,26.45
2023-03-05T01:27:25.631Z,26.42
2023-03-05T01:28:25.552Z,26.44
2023-03-05T01:29:25.501Z,26.44
2023-03-05T01:30:25.480Z,26.45
2023-03-05T01:31:25.486Z,26.45
2023-03-05T01:32:25.458Z,26.44
2023-03-05T01:33:25.322Z,26.44
2023-03-05T01:34:25.271Z,26.42
2023-03-05T01:35:25.375Z,26.42
2023-03-05T01:36:25.320Z,26.44
2023-03-05T01:37:25.145Z,26.44
2023-03-05T01:38:25.105Z,26.41
2023-03-05T01:39:25.067Z,26.42
2023-03-05T01:40:25.035Z,26.44
2023-03-05T01:41:24.963Z,26.42
2023-03-05T01:42:24.931Z,26.44
2023-03-05T01:43:24.900Z,26.41
2023-03-05T01:44:24.836Z,26.39
2023-03-05T01:45:24.871Z,26.44
2023-03-05T01:46:24.783Z,26.42
2023-03-05T01:47:24.701Z,26.42
2023-03-05T01:48:24.650Z,26.42
2023-03-05T01:49:24.617Z,26.44
2023-03-05T01:50:24.560Z,26.42
2023-03-05T01:51:24.594Z,26.41
2023-03-05T01:52:24.467Z,26.42
2023-03-05T01:53:24.410Z,26.44
2023-03-05T01:54:24.366Z,26.42
2023-03-05T01:55:24.316Z,26.42
2023-03-05T01:56:24.275Z,26.42
2023-03-05T01:57:24.229Z,26.42
2023-03-05T01:58:24.180Z,26.42
2023-03-05T01:59:24.166Z,26.44
2023-03-05T02:00:24.093Z,26.42
2023-03-05T02:01:24.113Z,26.41
2023-03-05T02:02:23.993Z,26.44
2023-03-05T02:03:24.058Z,26.44
2023-03-05T02:04:23.905Z,26.42
2023-03-05T02:05:23.848Z,26.42
2023-03-05T02:06:23.816Z,26.42
2023-03-05T02:07:23.769Z,26.42
2023-03-05T02:08:23.727Z,26.42
2023-03-05T02:09:23.695Z,26.44
2023-03-05T02:10:23.646Z,26.45
2023-03-05T02:11:23.617Z,26.42
2023-03-05T02:12:23.602Z,26.45
2023-03-05T02:13:23.533Z,26.42
2023-03-05T02:14:23.507Z,26.42
2023-03-05T02:15:23.509Z,26.42
2023-03-05T02:16:23.508Z,26.41
2023-03-05T02:17:23.437Z,26.42
2023-03-05T02:18:23.431Z,26.41
2023-03-05T02:19:23.327Z,26.44
2023-03-05T02:20:23.300Z,26.41
2023-03-05T02:21:23.252Z,26.42
2023-03-05T02:22:23.296Z,26.42
2023-03-05T02:23:23.178Z,26.44
2023-03-05T02:24:23.127Z,26.42
2023-03-05T02:25:23.124Z,26.44
2023-03-05T02:26:23.041Z,26.42
2023-03-05T02:27:23.005Z,26.42
2023-03-05T02:28:22.984Z,26.42
2023-03-05T02:29:22.926Z,26.42
2023-03-05T02:30:22.906Z,26.42
2023-03-05T02:31:22.978Z,26.44
2023-03-05T02:32:22.868Z,26.42
2023-03-05T02:33:22.762Z,26.42
2023-03-05T02:34:22.710Z,26.42
2023-03-05T02:35:22.706Z,26.44
2023-03-05T02:36:22.628Z,26.41
2023-03-05T02:37:22.622Z,26.44
2023-03-05T02:38:22.553Z,26.39
2023-03-05T02:39:22.515Z,26.44
2023-03-05T02:40:22.471Z,26.44
2023-03-05T02:41:22.416Z,26.41
2023-03-05T02:42:22.439Z,26.39
2023-03-05T02:43:22.328Z,26.42
2023-03-05T02:44:22.293Z,26.42
2023-03-05T02:45:22.238Z,26.42
2023-03-05T02:46:22.242Z,26.42
2023-03-05T02:47:22.171Z,26.41
2023-03-05T02:48:22.105Z,26.42
2023-03-05T02:49:22.060Z,26.39
2023-03-05T02:50:22.056Z,26.41
2023-03-05T02:51:21.972Z,26.41
2023-03-05T02:52:21.960Z,26.39
2023-03-05T02:53:21.887Z,26.39
2023-03-05T02:54:21.836Z,26.39
2023-03-05T02:55:21.796Z,26.39
2023-03-05T02:56:21.745Z,26.41
2023-03-05T02:57:21.732Z,26.41
2023-03-05T02:58:21.656Z,26.41
2023-03-05T02:59:21.608Z,26.39
2023-03-05T03:00:21.569Z,26.39
2023-03-05T03:01:21.582Z,26.39
2023-03-05T03:02:21.591Z,26.41
2023-03-05T03:03:21.541Z,26.41
2023-03-05T03:04:21.406Z,26.42
2023-03-05T03:05:21.333Z,26.41
2023-03-05T03:06:21.299Z,26.42
2023-03-05T03:07:21.250Z,26.41
2023-03-05T03:08:21.213Z,26.41
2023-03-05T03:09:21.152Z,26.39
2023-03-05T03:10:21.103Z,26.39
2023-03-05T03:11:21.056Z,26.41
2023-03-05T03:12:21.008Z,26.41
2023-03-05T03:13:20.960Z,26.39
2023-03-05T03:14:20.933Z,26.41
2023-03-05T03:15:20.871Z,26.39
2023-03-05T03:16:20.859Z,26.39
2023-03-05T03:17:20.781Z,26.38
2023-03-05T03:18:20.757Z,26.41
2023-03-05T03:19:20.728Z,26.39
2023-03-05T03:20:20.678Z,26.41
2023-03-05T03:21:20.608Z,26.39
2023-03-05T03:22:20.569Z,26.38
2023-03-05T03:23:20.532Z,26.39
2023-03-05T03:24:20.492Z,26.39
2023-03-05T03:25:20.464Z,26.39
2023-03-05T03:26:20.406Z,26.39
2023-03-05T03:27:20.375Z,26.39
2023-03-05T03:28:20.357Z,26.39
2023-03-05T03:29:20.292Z,26.38
2023-03-05T03:30:20.254Z,26.38
2023-03-05T03:31:20.384Z,26.38
2023-03-05T03:32:20.226Z,26.41
2023-03-05T03:33:20.117Z,26.41
2023-03-05T03:34:20.080Z,26.39
2023-03-05T03:35:20.126Z,26.39
2023-03-05T03:36:19.991Z,26.39
2023-03-05T03:37:19.952Z,26.39
2023-03-05T03:38:19.937Z,26.41
2023-03-05T03:39:19.862Z,26.39
2023-03-05T03:40:19.820Z,26.41
2023-03-05T03:41:19.778Z,26.39
2023-03-05T03:42:19.748Z,26.37
2023-03-05T03:43:19.717Z,26.37
2023-03-05T03:44:19.646Z,26.37
2023-03-05T03:45:19.605Z,26.38
2023-03-05T03:46:19.641Z,26.38
2023-03-05T03:47:19.546Z,26.38
2023-03-05T03:48:19.509Z,26.38
2023-03-05T03:49:19.451Z,26.38
2023-03-05T03:50:19.407Z,26.38
2023-03-05T03:51:19.393Z,26.39
2023-03-05T03:52:19.320Z,26.37
2023-03-05T03:53:19.376Z,26.38
2023-03-05T03:54:19.246Z,26.35
2023-03-05T03:55:19.210Z,26.38
2023-03-05T03:56:19.210Z,26.38
2023-03-05T03:57:19.153Z,26.35
2023-03-05T03:58:19.125Z,26.39
2023-03-05T03:59:19.059Z,26.38
2023-03-05T04:00:19.020Z,26.37
2023-03-05T04:01:18.975Z,26.37
2023-03-05T04:02:19.005Z,26.37
2023-03-05T04:03:18.908Z,26.37
2023-03-05T04:04:18.955Z,26.35
2023-03-05T04:05:18.802Z,26.37
2023-03-05T04:06:18.758Z,26.38
2023-03-05T04:07:18.741Z,26.37
2023-03-05T04:08:18.703Z,26.38
2023-03-05T04:09:18.637Z,26.39
2023-03-05T04:10:18.597Z,26.38
2023-03-05T04:11:18.557Z,26.38
2023-03-05T04:12:18.610Z,26.37
2023-03-05T04:13:18.478Z,26.38
2023-03-05T04:14:18.461Z,26.38
2023-03-05T04:15:18.399Z,26.37
2023-03-05T04:16:18.381Z,26.35
2023-03-05T04:17:18.312Z,26.35
2023-03-05T04:18:18.286Z,26.37
2023-03-05T04:19:18.263Z,26.35
2023-03-05T04:20:18.204Z,26.35
2023-03-05T04:21:18.133Z,26.37
2023-03-05T04:22:18.121Z,26.35
2023-03-05T04:23:18.076Z,26.35
2023-03-05T04:24:18.027Z,26.34
2023-03-05T04:25:17.967Z,26.34
2023-03-05T04:26:17.922Z,26.35
2023-03-05T04:27:17.886Z,26.32
2023-03-05T04:28:17.877Z,26.34
2023-03-05T04:29:17.885Z,26.34
2023-03-05T04:30:17.756Z,26.34
2023-03-05T04:31:17.751Z,26.34
2023-03-05T04:32:17.713Z,26.35
2023-03-05T04:33:17.640Z,26.34
2023-03-05T04:34:17.619Z,26.34
2023-03-05T04:35:17.594Z,26.35
2023-03-05T04:36:17.481Z,26.34
2023-03-05T04:37:17.444Z,26.34
2023-03-05T04:38:17.427Z,26.32
2023-03-05T04:39:17.410Z,26.35
2023-03-05T04:40:17.315Z,26.35
2023-03-05T04:41:17.280Z,26.34
2023-03-05T04:42:17.226Z,26.34
2023-03-05T04:43:17.218Z,26.34
2023-03-05T04:44:17.138Z,26.34
2023-03-05T04:45:17.108Z,26.35
2023-03-05T04:46:17.151Z,26.35
2023-03-05T04:47:17.017Z,26.35
2023-03-05T04:48:17.063Z,26.34
2023-03-05T04:49:16.930Z,26.34
2023-03-05T04:50:16.911Z,26.34
2023-03-05T04:51:16.857Z,26.35
2023-03-05T04:52:16.802Z,26.31
2023-03-05T04:53:16.759Z,26.35
2023-03-05T04:54:16.718Z,26.32
2023-03-05T04:55:16.705Z,26.34
2023-03-05T04:56:16.636Z,26.34
2023-03-05T04:57:16.581Z,26.34
2023-03-05T04:58:16.563Z,26.32
2023-03-05T04:59:16.483Z,26.34
2023-03-05T05:00:16.445Z,26.35
2023-03-05T05:01:16.418Z,26.35
2023-03-05T05:02:16.366Z,26.34
2023-03-05T05:03:16.434Z,26.32
2023-03-05T05:04:16.276Z,26.32
2023-03-05T05:05:16.250Z,26.34
2023-03-05T05:06:16.191Z,26.34
2023-03-05T05:07:16.145Z,26.34
2023-03-05T05:08:16.130Z,26.34
2023-03-05T05:09:16.087Z,26.32
2023-03-05T05:10:16.006Z,26.34
2023-03-05T05:11:15.987Z,26.35
2023-03-05T05:12:15.916Z,26.34
2023-03-05T05:13:15.871Z,26.35
2023-03-05T05:14:15.848Z,26.32
2023-03-05T05:15:15.812Z,26.35
2023-03-05T05:16:15.814Z,26.37
2023-03-05T05:17:15.701Z,26.34
2023-03-05T05:18:15.658Z,26.32
2023-03-05T05:19:15.667Z,26.31
2023-03-05T05:20:15.604Z,26.32
2023-03-05T05:21:15.528Z,26.32
2023-03-05T05:22:15.472Z,26.34
2023-03-05T05:23:15.428Z,26.31
2023-03-05T05:24:15.395Z,26.31
2023-03-05T05:25:15.372Z,26.32
2023-03-05T05:26:15.307Z,26.34
2023-03-05T05:27:15.276Z,26.32
2023-03-05T05:28:15.224Z,26.34
2023-03-05T05:29:15.154Z,26.32
2023-03-05T05:30:15.143Z,26.32
2023-03-05T05:31:15.105Z,26.32
2023-03-05T05:32:15.077Z,26.31
2023-03-05T05:33:14.980Z,26.32
2023-03-05T05:34:14.934Z,26.31
2023-03-05T05:35:14.913Z,26.31
2023-03-05T05:36:14.852Z,26.32
2023-03-05T05:37:14.804Z,26.31
2023-03-05T05:38:14.764Z,26.32
2023-03-05T05:39:14.722Z,26.34
2023-03-05T05:40:14.740Z,26.32
2023-03-05T05:41:14.645Z,26.32
2023-03-05T05:42:14.597Z,26.34
2023-03-05T05:43:14.569Z,26.32
2023-03-05T05:44:14.500Z,26.35
2023-03-05T05:45:14.534Z,26.32
2023-03-05T05:46:14.562Z,26.32
2023-03-05T05:47:14.370Z,26.32
2023-03-05T05:48:14.326Z,26.32
2023-03-05T05:49:14.279Z,26.34
2023-03-05T05:50:14.264Z,26.34
2023-03-05T05:51:14.194Z,26.31
2023-03-05T05:52:14.145Z,26.34
2023-03-05T05:53:14.093Z,26.31
2023-03-05T05:54:14.052Z,26.31
2023-03-05T05:55:14.028Z,26.32
2023-03-05T05:56:13.960Z,26.32
2023-03-05T05:57:13.912Z,26.34
2023-03-05T05:58:13.864Z,26.32
2023-03-05T05:59:13.870Z,26.34
2023-03-05T06:00:13.812Z,26.32
2023-03-05T06:01:13.736Z,26.34
2023-03-05T06:02:13.803Z,26.32
2023-03-05T06:03:13.757Z,26.31
2023-03-05T06:04:13.675Z,26.34
2023-03-05T06:05:13.581Z,26.32
2023-03-05T06:06:13.524Z,26.32
2023-03-05T06:07:13.496Z,26.34
2023-03-05T06:08:13.448Z,26.34
2023-03-05T06:09:13.403Z,26.31
2023-03-05T06:10:13.359Z,26.31
2023-03-05T06:11:13.302Z,26.32
2023-03-05T06:12:13.260Z,26.31
2023-03-05T06:13:13.237Z,26.32
2023-03-05T06:14:13.179Z,26.32
2023-03-05T06:15:13.163Z,26.31
2023-03-05T06:16:13.163Z,26.32
2023-03-05T06:17:21.810Z,26.32
2023-03-05T06:18:13.119Z,26.32
2023-03-05T06:19:12.977Z,26.31
2023-03-05T06:20:12.913Z,26.31
2023-03-05T06:21:12.883Z,26.31
2023-03-05T06:22:12.828Z,26.32
2023-03-05T06:23:12.782Z,26.34
2023-03-05T06:24:12.731Z,26.32
2023-03-05T06:25:12.698Z,26.28
2023-03-05T06:26:12.631Z,26.34
2023-03-05T06:27:12.584Z,26.30
2023-03-05T06:28:12.541Z,26.32
2023-03-05T06:29:12.497Z,26.28
2023-03-05T06:30:12.488Z,26.31
2023-03-05T06:31:12.571Z,26.30
2023-03-05T06:32:12.424Z,26.30
2023-03-05T06:33:12.316Z,26.32
2023-03-05T06:34:12.368Z,26.30
2023-03-05T06:35:12.256Z,26.32
2023-03-05T06:36:12.180Z,26.31
2023-03-05T06:37:12.145Z,26.31
2023-03-05T06:38:12.093Z,26.30
2023-03-05T06:39:12.046Z,26.30
2023-03-05T06:40:12.021Z,26.31
2023-03-05T06:41:11.951Z,26.30
2023-03-05T06:42:11.898Z,26.30
2023-03-05T06:43:11.849Z,26.31
2023-03-05T06:44:11.806Z,26.30
2023-03-05T06:45:11.803Z,26.31
2023-03-05T06:46:11.784Z,26.30
2023-03-05T06:47:11.686Z,26.31
2023-03-05T06:48:11.605Z,26.31
2023-03-05T06:49:11.558Z,26.30
2023-03-05T06:50:11.560Z,26.31
2023-03-05T06:51:11.467Z,26.31
2023-03-05T06:52:11.428Z,26.32
2023-03-05T06:53:11.371Z,26.32
2023-03-05T06:54:11.359Z,26.31
2023-03-05T06:55:11.272Z,26.30
2023-03-05T06:56:11.227Z,26.31
2023-03-05T06:57:11.195Z,26.31
2023-03-05T06:58:11.149Z,26.31
2023-03-05T06:59:11.128Z,26.32
2023-03-05T07:00:11.068Z,26.31
2023-03-05T07:01:11.098Z,26.32
2023-03-05T07:02:11.069Z,26.32
2023-03-05T07:03:10.968Z,26.31
2023-03-05T07:04:10.908Z,26.32
2023-03-05T07:05:10.863Z,26.32
2023-03-05T07:06:10.826Z,26.30
2023-03-05T07:07:10.845Z,26.32
2023-03-05T07:08:10.734Z,26.32
2023-03-05T07:09:10.694Z,26.30
2023-03-05T07:10:10.648Z,26.31
2023-03-05T07:11:10.634Z,26.31
2023-03-05T07:12:10.567Z,26.31
2023-03-05T07:13:10.531Z,26.32
2023-03-05T07:14:10.510Z,26.31
2023-03-05T07:15:10.464Z,26.30
2023-03-05T07:16:10.570Z,26.31
2023-03-05T07:17:10.433Z,26.32
2023-03-05T07:18:10.303Z,26.31
2023-03-05T07:19:10.314Z,26.32
2023-03-05T07:20:10.224Z,26.31
2023-03-05T07:21:10.213Z,26.34
2023-03-05T07:22:10.138Z,26.32
2023-03-05T07:23:10.100Z,26.34
2023-03-05T07:24:10.127Z,26.32
2023-03-05T07:25:10.025Z,26.32
2023-03-05T07:26:09.967Z,26.31
2023-03-05T07:27:09.930Z,26.31
2023-03-05T07:28:09.878Z,26.32
2023-03-05T07:29:09.861Z,26.31
2023-03-05T07:30:09.793Z,26.32
2023-03-05T07:31:09.792Z,26.34
2023-03-05T07:32:09.753Z,26.34
2023-03-05T07:33:09.660Z,26.32
2023-03-05T07:34:09.622Z,26.30
2023-03-05T07:35:09.596Z,26.32
2023-03-05T07:36:09.567Z,26.32
2023-03-05T07:37:09.483Z,26.31
2023-03-05T07:38:09.438Z,26.30
2023-03-05T07:39:09.390Z,26.28
2023-03-05T07:40:09.362Z,26.31
2023-03-05T07:41:09.362Z,26.32
2023-03-05T07:42:09.313Z,26.31
2023-03-05T07:43:09.211Z,26.34
2023-03-05T07:44:09.191Z,26.32
2023-03-05T07:45:09.171Z,26.34
2023-03-05T07:46:09.193Z,26.34
2023-03-05T07:47:09.040Z,26.32
2023-03-05T07:48:08.998Z,26.32
2023-03-05T07:49:08.952Z,26.31
2023-03-05T07:50:08.911Z,26.32
2023-03-05T07:51:08.886Z,26.35
2023-03-05T07:52:08.821Z,26.34
2023-03-05T07:53:08.785Z,26.35
2023-03-05T07:54:08.735Z,26.35
2023-03-05T07:55:08.689Z,26.35
2023-03-05T07:56:08.652Z,26.34
2023-03-05T07:57:08.606Z,26.34
2023-03-05T07:58:08.572Z,26.32
2023-03-05T07:59:08.539Z,26.35
2023-03-05T08:00:08.482Z,26.35
2023-03-05T08:01:08.431Z,26.35
2023-03-05T08:02:08.431Z,26.32
2023-03-05T08:03:08.338Z,26.37
2023-03-05T08:04:08.486Z,26.37
2023-03-05T08:05:08.245Z,26.35
2023-03-05T08:06:08.219Z,26.34
2023-03-05T08:07:08.173Z,26.37
2023-03-05T08:08:08.086Z,26.37
2023-03-05T08:09:08.073Z,26.35
2023-03-05T08:10:08.024Z,26.38
2023-03-05T08:11:07.936Z,26.37
2023-03-05T08:12:07.891Z,26.37
2023-03-05T08:13:07.898Z,26.38
2023-03-05T08:14:07.823Z,26.38
2023-03-05T08:15:07.750Z,26.39
2023-03-05T08:16:07.790Z,26.37
2023-03-05T08:17:07.645Z,26.37
2023-03-05T08:18:07.620Z,26.39
2023-03-05T08:19:07.546Z,26.35
2023-03-05T08:20:07.510Z,26.38
2023-03-05T08:21:07.464Z,26.38
2023-03-05T08:22:07.410Z,26.38
2023-03-05T08:23:07.409Z,26.41
2023-03-05T08:24:07.326Z,26.39
2023-03-05T08:25:07.262Z,26.39
2023-03-05T08:26:07.217Z,26.42
2023-03-05T08:27:07.166Z,26.41
2023-03-05T08:28:07.169Z,26.39
2023-03-05T08:29:07.082Z,26.41
2023-03-05T08:30:07.030Z,26.42
2023-03-05T08:31:07.030Z,26.42
2023-03-05T08:32:07.002Z,26.39
2023-03-05T08:33:06.901Z,26.39
2023-03-05T08:34:06.872Z,26.38
2023-03-05T08:35:06.774Z,26.41
2023-03-05T08:36:06.728Z,26.39
2023-03-05T08:37:06.707Z,26.39
2023-03-05T08:38:06.665Z,26.42
2023-03-05T08:39:06.613Z,26.42
2023-03-05T08:40:06.573Z,26.42
2023-03-05T08:41:06.501Z,26.45
2023-03-05T08:42:08.891Z,26.45
2023-03-05T08:43:06.391Z,26.45
2023-03-05T08:44:06.345Z,26.45
2023-03-05T08:45:06.323Z,26.46
2023-03-05T08:46:06.240Z,26.48
2023-03-05T08:47:06.194Z,26.48
2023-03-05T08:48:06.158Z,26.48
2023-03-05T08:49:06.179Z,26.46
2023-03-05T08:50:06.080Z,26.48
2023-03-05T08:51:06.032Z,26.48
2023-03-05T08:52:05.972Z,26.48
2023-03-05T08:53:05.923Z,26.48
2023-03-05T08:54:05.896Z,26.48
2023-03-05T08:55:05.848Z,26.49
2023-03-05T08:56:05.773Z,26.49
2023-03-05T08:57:05.722Z,26.48
2023-03-05T08:58:05.676Z,26.49
2023-03-05T08:59:05.647Z,26.51
2023-03-05T09:00:05.564Z,26.46
2023-03-05T09:01:05.519Z,26.46
2023-03-05T09:02:05.579Z,26.44
2023-03-05T09:03:05.461Z,26.45
2023-03-05T09:04:05.364Z,26.44
2023-03-05T09:05:05.307Z,26.45
2023-03-05T09:06:05.259Z,26.45
2023-03-05T09:07:05.206Z,26.46
2023-03-05T09:08:05.150Z,26.46
2023-03-05T09:09:05.124Z,26.46
2023-03-05T09:10:05.050Z,26.45
2023-03-05T09:11:05.023Z,26.46
2023-03-05T09:12:04.945Z,26.46
2023-03-05T09:13:04.891Z,26.48
2023-03-05T09:14:04.872Z,26.48
2023-03-05T09:15:04.831Z,26.51
2023-03-05T09:16:04.814Z,26.49
2023-03-05T09:17:04.693Z,26.51
2023-03-05T09:18:04.654Z,26.48
2023-03-05T09:19:04.612Z,26.51
2023-03-05T09:20:04.538Z,26.52
2023-03-05T09:21:04.496Z,26.51
2023-03-05T09:22:04.444Z,26.52
2023-03-05T09:23:04.397Z,26.52
2023-03-05T09:24:04.339Z,26.52
2023-03-05T09:25:04.290Z,26.54
2023-03-05T09:26:04.251Z,26.54
2023-03-05T09:27:04.292Z,26.54
2023-03-05T09:28:04.144Z,26.55
2023-03-05T09:29:04.086Z,26.55
2023-03-05T09:30:04.037Z,26.55
2023-03-05T09:31:04.011Z,26.54
2023-03-05T09:32:04.065Z,26.55
2023-03-05T09:33:03.876Z,26.54
2023-03-05T09:34:03.822Z,26.54
2023-03-05T09:35:03.761Z,26.55
2023-03-05T09:36:03.710Z,26.55
2023-03-05T09:37:03.656Z,26.56
2023-03-05T09:38:03.612Z,26.55
2023-03-05T09:39:03.545Z,26.55
2023-03-05T09:40:03.488Z,26.54
2023-03-05T09:41:03.452Z,26.56
2023-03-05T09:42:03.384Z,26.55
2023-03-05T09:43:03.362Z,26.56
2023-03-05T09:44:03.280Z,26.56
2023-03-05T09:45:03.228Z,26.59
2023-03-05T09:46:03.355Z,26.58
2023-03-05T09:47:03.131Z,26.56
2023-03-05T09:48:03.080Z,26.60
2023-03-05T09:49:03.021Z,26.59
2023-03-05T09:50:02.987Z,26.58
2023-03-05T09:51:02.918Z,26.59
2023-03-05T09:52:02.883Z,26.58
2023-03-05T09:53:02.837Z,26.59
2023-03-05T09:54:03.192Z,26.60
2023-03-05T09:55:02.731Z,26.58
2023-03-05T09:56:02.669Z,26.59
2023-03-05T09:57:02.614Z,26.60
2023-03-05T09:58:02.552Z,26.59
2023-03-05T09:59:02.534Z,26.59
2023-03-05T10:00:02.459Z,26.60
2023-03-05T10:01:02.413Z,26.59
2023-03-05T10:02:02.358Z,26.60
2023-03-05T10:03:02.334Z,26.62
2023-03-05T10:04:02.294Z,26.60
2023-03-05T10:05:02.212Z,26.62
2023-03-05T10:06:02.159Z,26.63
2023-03-05T10:07:02.095Z,26.62
2023-03-05T10:08:02.047Z,26.62
2023-03-05T10:09:01.998Z,26.60
2023-03-05T10:10:01.965Z,26.65
2023-03-05T10:11:01.905Z,26.60
2023-03-05T10:12:01.853Z,26.65
2023-03-05T10:13:01.803Z,26.63
2023-03-05T10:14:01.754Z,26.62
2023-03-05T10:15:01.735Z,26.62
2023-03-05T10:16:01.666Z,26.60
2023-03-05T10:17:01.619Z,26.60
2023-03-05T10:18:01.568Z,26.62
2023-03-05T10:19:01.543Z,26.62
2023-03-05T10:20:01.533Z,26.63
2023-03-05T10:21:01.431Z,26.62
2023-03-05T10:22:01.386Z,26.65
2023-03-05T10:23:01.364Z,26.65
2023-03-05T10:24:01.288Z,26.65
2023-03-05T10:25:01.272Z,26.63
2023-03-05T10:26:01.219Z,26.63
2023-03-05T10:27:01.220Z,26.65
2023-03-05T10:28:01.135Z,26.65
2023-03-05T10:29:01.068Z,26.63
2023-03-05T10:30:01.084Z,26.65
2023-03-05T10:31:01.010Z,26.65
2023-03-05T10:32:01.009Z,26.63
2023-03-05T10:33:00.875Z,26.66
2023-03-05T10:34:00.828Z,26.65
2023-03-05T10:35:00.822Z,26.66
2023-03-05T10:36:00.733Z,26.65
2023-03-05T10:37:00.692Z,26.63
2023-03-05T10:38:00.652Z,26.65
2023-03-05T10:39:00.604Z,26.66
2023-03-05T10:40:00.716Z,26.65
2023-03-05T10:41:00.536Z,26.65
2023-03-05T10:42:00.447Z,26.63
2023-03-05T10:43:00.413Z,26.65
2023-03-05T10:44:00.348Z,26.62
2023-03-05T10:45:00.315Z,26.66
2023-03-05T10:46:00.358Z,26.66
2023-03-05T10:47:00.244Z,26.66
2023-03-05T10:48:00.158Z,26.63
2023-03-05T10:49:00.140Z,26.66
2023-03-05T10:50:00.077Z,26.68
2023-03-05T10:51:00.050Z,26.66
2023-03-05T10:51:59.958Z,26.66
2023-03-05T10:52:59.904Z,26.69
2023-03-05T10:53:59.865Z,26.66
2023-03-05T10:54:59.811Z,26.65
2023-03-05T10:55:59.819Z,26.66
2023-03-05T10:56:59.743Z,26.66
2023-03-05T10:57:59.664Z,26.65
2023-03-05T10:58:59.624Z,26.65
2023-03-05T10:59:59.580Z,26.66
2023-03-05T11:00:59.542Z,26.66
2023-03-05T11:01:59.477Z,26.66
2023-03-05T11:02:59.488Z,26.66
2023-03-05T11:03:59.387Z,26.66
2023-03-05T11:04:59.337Z,26.65
2023-03-05T11:05:59.292Z,26.66
2023-03-05T11:06:59.251Z,26.66
2023-03-05T11:07:59.233Z,26.69
2023-03-05T11:08:59.156Z,26.69
2023-03-05T11:09:59.112Z,26.69
2023-03-05T11:10:59.081Z,26.68
2023-03-05T11:11:59.019Z,26.65
2023-03-05T11:12:58.968Z,26.68
2023-03-05T11:13:58.919Z,26.65
2023-03-05T11:14:58.871Z,26.68
2023-03-05T11:15:59.001Z,26.66
2023-03-05T11:16:58.778Z,26.68
2023-03-05T11:17:58.716Z,26.68
2023-03-05T11:18:58.692Z,26.66
2023-03-05T11:19:58.637Z,26.65
2023-03-05T11:20:58.567Z,26.66
2023-03-05T11:21:59.830Z,26.66
2023-03-05T11:22:58.500Z,26.66
2023-03-05T11:23:59.439Z,26.68
2023-03-05T11:24:58.369Z,26.68
2023-03-05T11:25:58.378Z,26.69
2023-03-05T11:26:58.274Z,26.68
2023-03-05T11:27:58.236Z,26.68
2023-03-05T11:28:58.172Z,26.69
2023-03-05T11:29:58.125Z,26.68
2023-03-05T11:30:58.226Z,26.69
2023-03-05T11:31:58.080Z,26.69
2023-03-05T11:32:57.973Z,26.69
2023-03-05T11:33:57.947Z,26.66
2023-03-05T11:34:57.908Z,26.71
2023-03-05T11:35:57.852Z,26.69
2023-03-05T11:36:57.781Z,26.68
2023-03-05T11:37:57.731Z,26.63
2023-03-05T11:38:57.687Z,26.69
2023-03-05T11:39:57.632Z,26.66
2023-03-05T11:40:57.605Z,26.68
2023-03-05T11:41:57.544Z,26.66
2023-03-05T11:42:57.490Z,26.68
2023-03-05T11:43:57.464Z,26.66
2023-03-05T11:44:57.420Z,26.68
2023-03-05T11:45:57.458Z,26.69
2023-03-05T11:46:57.310Z,26.68
2023-03-05T11:47:57.260Z,26.68
2023-03-05T11:48:57.222Z,26.68
2023-03-05T11:49:57.221Z,26.68
2023-03-05T11:50:57.175Z,26.66
2023-03-05T11:51:57.079Z,26.65
2023-03-05T11:52:57.030Z,26.66
2023-03-05T11:53:56.998Z,26.66
2023-03-05T11:54:56.953Z,26.68
2023-03-05T11:55:56.905Z,26.68
2023-03-05T11:56:56.860Z,26.68
2023-03-05T11:57:56.815Z,26.66
2023-03-05T11:58:56.759Z,26.68
2023-03-05T11:59:56.718Z,26.68
2023-03-05T12:00:56.668Z,26.68
2023-03-05T12:01:56.617Z,26.69
2023-03-05T12:02:56.603Z,26.68
2023-03-05T12:03:56.590Z,26.69
2023-03-05T12:04:56.472Z,26.68
2023-03-05T12:05:56.435Z,26.68
2023-03-05T12:06:56.404Z,26.69
2023-03-05T12:07:56.339Z,26.69
2023-03-05T12:08:56.290Z,26.66
2023-03-05T12:09:56.268Z,26.69
2023-03-05T12:10:56.194Z,26.68
2023-03-05T12:11:56.140Z,26.71
2023-03-05T12:12:56.130Z,26.71
2023-03-05T12:13:56.049Z,26.69
2023-03-05T12:14:55.999Z,26.68
2023-03-05T12:15:55.976Z,26.69
2023-03-05T12:16:55.894Z,26.72
2023-03-05T12:17:55.871Z,26.68
2023-03-05T12:18:55.819Z,26.69
2023-03-05T12:19:55.754Z,26.69
2023-03-05T12:20:55.790Z,26.69
2023-03-05T12:21:55.671Z,26.69
2023-03-05T12:22:55.646Z,26.69
2023-03-05T12:23:55.575Z,26.69
2023-03-05T12:24:55.505Z,26.69
2023-03-05T12:25:55.459Z,26.68
2023-03-05T12:26:55.405Z,26.68
2023-03-05T12:27:55.376Z,26.71
2023-03-05T12:28:55.368Z,26.69
2023-03-05T12:29:55.250Z,26.69
2023-03-05T12:30:55.199Z,26.71
2023-03-05T12:31:55.160Z,26.72
2023-03-05T12:32:55.115Z,26.68
2023-03-05T12:33:55.054Z,26.69
2023-03-05T12:34:55.000Z,26.69
2023-03-05T12:35:54.979Z,26.72
2023-03-05T12:36:54.931Z,26.71
2023-03-05T12:37:54.852Z,26.72
2023-03-05T12:38:55.064Z,26.71
2023-03-05T12:39:54.751Z,26.69
2023-03-05T12:40:54.693Z,26.69
2023-03-05T12:41:54.671Z,26.72
2023-03-05T12:42:54.599Z,26.71
2023-03-05T12:43:54.536Z,26.71
2023-03-05T12:44:54.488Z,26.75
2023-03-05T12:45:54.435Z,26.72
2023-03-05T12:46:54.476Z,26.69
2023-03-05T12:47:54.339Z,26.69
2023-03-05T12:48:54.387Z,26.72
2023-03-05T12:49:54.242Z,26.71
2023-03-05T12:50:54.185Z,26.71
2023-03-05T12:51:54.193Z,26.71
2023-03-05T12:52:54.092Z,26.71
2023-03-05T12:53:54.066Z,26.71
2023-03-05T12:54:54.018Z,26.73
2023-03-05T12:55:53.942Z,26.72
2023-03-05T12:56:53.885Z,26.72
2023-03-05T12:57:53.877Z,26.72
2023-03-05T12:58:53.826Z,26.69
2023-03-05T12:59:53.742Z,26.71
2023-03-05T13:00:53.770Z,26.72
2023-03-05T13:01:53.649Z,26.68
2023-03-05T13:02:53.601Z,26.72
2023-03-05T13:03:53.608Z,26.71
2023-03-05T13:04:53.492Z,26.72
2023-03-05T13:05:53.452Z,26.69
2023-03-05T13:06:53.397Z,26.72
2023-03-05T13:07:53.349Z,26.72
2023-03-05T13:08:53.303Z,26.71
2023-03-05T13:09:53.248Z,26.71
2023-03-05T13:10:53.247Z,26.71
2023-03-05T13:11:53.189Z,26.73
2023-03-05T13:12:53.117Z,26.72
2023-03-05T13:13:53.048Z,26.69
2023-03-05T13:14:53.003Z,26.72
2023-03-05T13:15:52.978Z,26.72
2023-03-05T13:16:52.905Z,26.69
2023-03-05T13:17:52.883Z,26.71
2023-03-05T13:18:52.797Z,26.69
2023-03-05T13:19:52.742Z,26.72
2023-03-05T13:20:52.692Z,26.71
2023-03-05T13:21:52.644Z,26.72
2023-03-05T13:22:52.620Z,26.72
2023-03-05T13:23:52.536Z,26.72
2023-03-05T13:24:52.479Z,26.69
2023-03-05T13:25:52.429Z,26.71
2023-03-05T13:26:52.406Z,26.72
2023-03-05T13:27:52.383Z,26.71
2023-03-05T13:28:52.312Z,26.69
2023-03-05T13:29:52.238Z,26.69
2023-03-05T13:30:52.191Z,26.73
2023-03-05T13:31:52.235Z,26.72
2023-03-05T13:32:52.115Z,26.69
2023-03-05T13:33:52.079Z,26.69
2023-03-05T13:34:52.003Z,26.71
2023-03-05T13:35:53.880Z,26.71
2023-03-05T13:36:51.908Z,26.72
2023-03-05T13:37:51.884Z,26.71
2023-03-05T13:38:51.827Z,26.72
2023-03-05T13:39:51.752Z,26.69
2023-03-05T13:40:51.712Z,26.71
2023-03-05T13:41:51.661Z,26.68
2023-03-05T13:42:51.664Z,26.71